Terminal Aerodrome Forecast
Issued by NWS Louisville, KY

Home | Current Version | Previous Version | Text Only | Print | Product List | Glossary On
Versions: 1 2 3 4 5 6 7 8 9 10 11 12 13 14 15 16 17 18 19
000
FTUS43 KLMK 252100 AAA
TAFSDF
TAF AMD
KSDF 252137Z 2522/2624 04012KT P6SM VCSH BKN008 BKN015
     FM260000 02010KT P6SM VCTS BKN008 BKN015CB
     FM260300 02008KT P6SM VCSH OVC008
     FM261000 01011KT P6SM OVC015
     FM261600 02009KT P6SM BKN035=

USA.gov is the U.S. government's official web portal to all federal, state and local government web resources and services.